Time;durP1;ratioP1;P1;durP2;ratioP2;P2;SDS_P1;SDS_P2;PMS_P1;PMS_P2;Temp;Humidity;BMP_temperature;BMP_pressure;BME280_temperature;BME280_humidity;BME280_pressure;Samples;Min_cycle;Max_cycle;Signal;HPM_P1;HPM_P2
2023/05/12 00:01:07;;;;;;;6.07;5.57;;;15.30;47.90;;;;;;10449295;28;20315;-71
2023/05/12 00:06:11;;;;;;;5.90;5.50;;;15.30;47.60;;;;;;10454641;28;20276;-70
2023/05/12 00:11:15;;;;;;;6.00;5.60;;;15.30;47.70;;;;;;10447107;28;20228;-70
2023/05/12 00:16:19;;;;;;;5.33;4.83;;;15.30;47.90;;;;;;10441320;28;20233;-71
2023/05/12 00:21:22;;;;;;;4.90;4.50;;;15.30;47.70;;;;;;10452382;28;20293;-70
2023/05/12 00:26:26;;;;;;;5.73;5.23;;;15.30;47.70;;;;;;10449306;28;20221;-70
2023/05/12 00:31:30;;;;;;;5.60;5.10;;;15.40;47.90;;;;;;10452315;28;20236;-71
2023/05/12 00:36:33;;;;;;;5.60;5.20;;;15.40;47.80;;;;;;10454138;28;20232;-70
2023/05/12 00:41:37;;;;;;;5.40;5.00;;;15.40;47.70;;;;;;10478622;28;20758;-70
2023/05/12 00:46:42;;;;;;;5.67;5.27;;;15.40;47.80;;;;;;10487013;28;20224;-71
2023/05/12 00:51:46;;;;;;;5.50;5.10;;;15.40;47.60;;;;;;10503826;28;20242;-70
2023/05/12 00:56:51;;;;;;;6.60;6.00;;;15.40;47.60;;;;;;10497083;28;20227;-71
2023/05/12 01:01:54;;;;;;;6.20;5.73;;;15.40;47.70;;;;;;10499023;28;20220;-70
2023/05/12 01:07:04;;;;;;;5.67;5.27;;;15.40;47.50;;;;;;10499475;28;20239;-70
2023/05/12 01:12:09;;;;;;;5.30;4.60;;;15.40;47.80;;;;;;10466357;28;20224;-71
2023/05/12 01:17:13;;;;;;;5.63;5.23;;;15.40;47.60;;;;;;10477345;28;21027;-71
2023/05/12 01:22:17;;;;;;;5.30;4.90;;;15.40;47.60;;;;;;10452022;28;20308;-72
2023/05/12 01:27:26;;;;;;;5.40;5.00;;;15.40;47.60;;;;;;10465118;28;20229;-71
2023/05/12 01:32:29;;;;;;;6.03;5.53;;;15.40;47.70;;;;;;10455196;28;20331;-70
2023/05/12 01:37:32;;;;;;;5.57;5.23;;;15.40;47.50;;;;;;10457247;28;20263;-70
2023/05/12 01:42:38;;;;;;;5.50;4.43;;;15.40;47.50;;;;;;10455638;28;20236;-71
2023/05/12 01:47:42;;;;;;;5.90;5.40;;;15.40;47.70;;;;;;10456164;28;20347;-71
2023/05/12 01:52:45;;;;;;;5.93;5.47;;;15.40;47.60;;;;;;10476985;28;20305;-71
2023/05/12 01:57:49;;;;;;;5.80;5.40;;;15.40;47.60;;;;;;10497512;28;20639;-70
2023/05/12 02:02:52;;;;;;;5.40;5.00;;;15.40;47.70;;;;;;10497162;28;20227;-71
2023/05/12 02:07:55;;;;;;;5.90;5.40;;;15.40;47.60;;;;;;10462725;28;20232;-71
2023/05/12 02:13:00;;;;;;;6.00;5.50;;;15.40;47.60;;;;;;10456711;28;20225;-71
2023/05/12 02:18:03;;;;;;;6.00;5.60;;;15.40;47.60;;;;;;10472916;28;20799;-72
2023/05/12 02:23:06;;;;;;;6.27;5.77;;;15.40;47.50;;;;;;10456418;28;20320;-72
2023/05/12 02:28:11;;;;;;;5.80;5.30;;;15.40;47.60;;;;;;10458582;28;20232;-73
2023/05/12 02:33:14;;;;;;;5.83;5.33;;;15.40;47.70;;;;;;10462973;28;20706;-70
2023/05/12 02:38:18;;;;;;;7.07;6.37;;;15.40;47.60;;;;;;10460770;28;20220;-71
2023/05/12 02:43:22;;;;;;;5.90;5.50;;;15.40;47.50;;;;;;10459814;28;20220;-70
2023/05/12 02:48:25;;;;;;;7.20;5.43;;;15.30;47.60;;;;;;10454146;28;20220;-71
2023/05/12 02:53:28;;;;;;;5.97;5.47;;;15.30;47.60;;;;;;10453283;28;20228;-70
2023/05/12 02:58:33;;;;;;;5.77;5.37;;;15.30;47.50;;;;;;10453810;28;20241;-70
2023/05/12 03:03:36;;;;;;;5.90;5.33;;;15.30;47.70;;;;;;10454941;28;20739;-70
2023/05/12 03:08:40;;;;;;;6.03;5.57;;;15.30;47.60;;;;;;10458164;28;20228;-70
2023/05/12 03:13:44;;;;;;;6.40;5.90;;;15.30;47.50;;;;;;10459988;28;20231;-70
2023/05/12 03:18:47;;;;;;;6.97;6.37;;;15.30;47.70;;;;;;10485166;28;20301;-71
2023/05/12 03:23:51;;;;;;;6.50;6.00;;;15.20;47.60;;;;;;10494211;28;20228;-70
2023/05/12 03:28:56;;;;;;;5.83;5.33;;;15.20;47.60;;;;;;10464414;28;20783;-70
2023/05/12 03:33:59;;;;;;;6.43;5.93;;;15.20;47.80;;;;;;10453706;28;20244;-70
2023/05/12 03:39:02;;;;;;;6.80;6.20;;;15.10;47.50;;;;;;10494450;28;20258;-71
2023/05/12 03:44:07;;;;;;;6.47;5.93;;;15.20;47.80;;;;;;10489655;28;20223;-71
2023/05/12 03:49:10;;;;;;;6.30;5.57;;;15.20;47.90;;;;;;10491289;28;20331;-71
2023/05/12 03:54:14;;;;;;;6.00;5.50;;;15.20;47.70;;;;;;10493261;28;20232;-71
2023/05/12 03:59:18;;;;;;;5.33;4.87;;;15.10;47.70;;;;;;10498086;28;20227;-70
2023/05/12 04:04:22;;;;;;;6.23;5.77;;;15.10;47.80;;;;;;10491716;28;20243;-70
2023/05/12 04:09:25;;;;;;;5.70;5.30;;;15.20;47.90;;;;;;10453911;28;20662;-69
2023/05/12 04:14:29;;;;;;;6.73;6.23;;;15.20;47.90;;;;;;10458687;28;20240;-70
2023/05/12 04:19:45;;;;;;;6.47;5.97;;;15.20;48.10;;;;;;10454215;28;20239;-71
2023/05/12 04:24:49;;;;;;;6.50;6.00;;;15.20;48.00;;;;;;10453403;28;20238;-70
2023/05/12 04:29:53;;;;;;;6.77;6.27;;;15.20;48.00;;;;;;10488407;28;20223;-70
2023/05/12 04:34:57;;;;;;;7.00;6.50;;;15.20;48.10;;;;;;10474314;28;20239;-70
2023/05/12 04:40:01;;;;;;;6.70;6.10;;;15.20;48.00;;;;;;10453994;28;20232;-71
2023/05/12 04:45:07;;;;;;;7.00;6.50;;;15.20;48.10;;;;;;10453312;28;20224;-70
2023/05/12 04:50:11;;;;;;;7.10;6.50;;;15.20;48.10;;;;;;10490548;28;20247;-71
2023/05/12 04:55:14;;;;;;;6.73;6.20;;;15.20;48.10;;;;;;10487434;28;20653;-71
2023/05/12 05:00:19;;;;;;;6.80;6.23;;;15.20;47.90;;;;;;10490860;28;20230;-70
2023/05/12 05:05:22;;;;;;;7.40;6.90;;;15.20;48.10;;;;;;10486982;28;20768;-72
2023/05/12 05:10:25;;;;;;;7.57;6.87;;;15.20;48.00;;;;;;10492780;28;20242;-70
2023/05/12 05:15:30;;;;;;;7.07;6.57;;;15.20;47.90;;;;;;10489304;28;20232;-70
2023/05/12 05:20:34;;;;;;;7.53;6.93;;;15.20;48.10;;;;;;10487484;28;20227;-70
2023/05/12 05:25:37;;;;;;;7.33;6.73;;;15.20;48.10;;;;;;10475011;28;20224;-70
2023/05/12 05:30:42;;;;;;;6.77;6.27;;;15.30;48.10;;;;;;10456340;28;20229;-70
2023/05/12 05:35:45;;;;;;;7.47;6.87;;;15.30;48.20;;;;;;10455960;28;20235;-70
2023/05/12 05:40:48;;;;;;;7.23;6.67;;;15.30;48.20;;;;;;10454744;28;20228;-70
2023/05/12 05:45:57;;;;;;;7.53;6.93;;;15.30;48.20;;;;;;10455353;28;20693;-70
2023/05/12 05:51:01;;;;;;;7.70;7.13;;;15.30;48.30;;;;;;10456322;28;20241;-70
2023/05/12 05:56:04;;;;;;;7.03;6.50;;;15.30;48.20;;;;;;10451965;28;20228;-70
2023/05/12 06:01:09;;;;;;;6.60;6.10;;;15.30;48.20;;;;;;10445528;28;20641;-70
2023/05/12 06:06:12;;;;;;;6.90;6.30;;;15.30;48.30;;;;;;10451487;28;20229;-70
2023/05/12 06:11:16;;;;;;;6.63;6.13;;;15.40;48.30;;;;;;10448837;28;20228;-70
2023/05/12 06:16:21;;;;;;;7.20;6.57;;;15.40;48.30;;;;;;10450769;28;20606;-70
2023/05/12 06:21:24;;;;;;;6.50;6.00;;;15.40;48.30;;;;;;10452364;28;20244;-71
2023/05/12 06:26:27;;;;;;;7.33;6.73;;;15.40;48.30;;;;;;10453920;28;20239;-70
2023/05/12 06:31:32;;;;;;;6.97;6.30;;;15.50;48.40;;;;;;10439378;28;20229;-70
2023/05/12 06:36:35;;;;;;;6.90;6.40;;;15.50;48.20;;;;;;10445543;28;20239;-70
2023/05/12 06:41:38;;;;;;;7.60;5.83;;;15.60;48.40;;;;;;10445398;28;20228;-70
2023/05/12 06:46:43;;;;;;;7.10;6.50;;;15.60;48.40;;;;;;10442488;28;20232;-70
2023/05/12 06:51:46;;;;;;;7.10;6.50;;;15.60;48.20;;;;;;10477352;28;20641;-70
2023/05/12 06:56:50;;;;;;;6.83;6.23;;;15.60;48.10;;;;;;10480156;28;20676;-70
2023/05/12 07:01:55;;;;;;;6.60;6.10;;;15.60;48.20;;;;;;10460753;28;20225;-70
2023/05/12 07:06:58;;;;;;;7.17;6.50;;;15.70;48.40;;;;;;10445898;28;20285;-70
2023/05/12 07:12:02;;;;;;;6.10;5.70;;;15.70;48.20;;;;;;10437420;28;20225;-70
2023/05/12 07:17:07;;;;;;;6.30;5.80;;;15.80;48.30;;;;;;10446736;28;20228;-70
2023/05/12 07:22:10;;;;;;;6.17;5.57;;;15.80;48.50;;;;;;10442906;28;20231;-71
2023/05/12 07:27:13;;;;;;;6.97;5.63;;;15.80;48.00;;;;;;10440950;28;20239;-70
2023/05/12 07:32:18;;;;;;;7.37;6.10;;;15.90;48.20;;;;;;10443793;28;20267;-70
2023/05/12 07:37:23;;;;;;;6.63;6.07;;;15.90;48.00;;;;;;10442680;28;20736;-70
2023/05/12 07:42:26;;;;;;;5.97;5.47;;;16.00;48.00;;;;;;10444928;28;20305;-70
2023/05/12 07:47:30;;;;;;;6.07;5.57;;;16.00;47.80;;;;;;10436993;28;20240;-70
2023/05/12 07:52:34;;;;;;;5.23;4.83;;;16.00;47.40;;;;;;10443955;28;20346;-70
2023/05/12 07:57:37;;;;;;;6.00;5.40;;;16.10;48.00;;;;;;10434457;28;20233;-70
2023/05/12 08:02:42;;;;;;;5.20;4.80;;;16.10;47.90;;;;;;10436637;28;20224;-70
2023/05/12 08:07:47;;;;;;;5.37;4.97;;;16.10;47.60;;;;;;10444087;28;21064;-70
2023/05/12 08:12:50;;;;;;;5.63;5.13;;;16.20;48.70;;;;;;10443861;28;20565;-70
2023/05/12 08:17:55;;;;;;;5.83;5.43;;;16.30;47.50;;;;;;10460090;28;20224;-70
2023/05/12 08:22:58;;;;;;;5.60;5.20;;;16.30;47.10;;;;;;10495216;28;20735;-70
2023/05/12 08:28:01;;;;;;;5.43;4.93;;;16.40;47.60;;;;;;10487228;28;20603;-70
2023/05/12 08:33:06;;;;;;;5.60;5.10;;;16.40;47.40;;;;;;10491197;28;20235;-70
2023/05/12 08:38:09;;;;;;;6.90;5.13;;;16.50;47.30;;;;;;10489552;28;20224;-70
2023/05/12 08:43:23;;;;;;;5.60;5.20;;;16.60;47.60;;;;;;10488260;28;20223;-70
2023/05/12 08:48:30;;;;;;;5.63;5.13;;;16.70;46.30;;;;;;10485665;28;20739;-70
2023/05/12 08:53:36;;;;;;;5.60;5.20;;;16.80;46.60;;;;;;10464443;28;20221;-70
2023/05/12 08:58:39;;;;;;;5.30;4.90;;;16.80;46.00;;;;;;10489052;28;20228;-70
2023/05/12 09:03:45;;;;;;;5.67;5.27;;;16.90;46.60;;;;;;10496056;28;20230;-69
2023/05/12 09:08:49;;;;;;;5.73;5.33;;;16.90;46.40;;;;;;10493253;28;20238;-69
2023/05/12 09:14:00;;;;;;;5.53;5.03;;;17.00;46.70;;;;;;10458208;28;20850;-69
2023/05/12 09:19:04;;;;;;;5.10;4.67;;;17.10;46.20;;;;;;10460508;28;20587;-70
2023/05/12 09:24:09;;;;;;;5.30;4.47;;;17.10;46.20;;;;;;10450746;28;20362;-70
2023/05/12 09:29:12;;;;;;;5.10;4.70;;;17.10;46.20;;;;;;10449814;28;20575;-70
2023/05/12 09:34:37;;;;;;;5.50;5.00;;;17.20;46.30;;;;;;10464226;28;20228;-69
2023/05/12 09:39:40;;;;;;;4.87;4.47;;;17.20;46.30;;;;;;10460416;28;20301;-69
2023/05/12 09:44:45;;;;;;;4.63;4.33;;;17.30;46.30;;;;;;10494146;28;20228;-69
2023/05/12 09:49:52;;;;;;;4.77;4.03;;;17.40;46.50;;;;;;10501430;28;20776;-70
2023/05/12 09:54:55;;;;;;;4.20;3.90;;;17.40;46.20;;;;;;10495206;28;20704;-69
2023/05/12 09:59:58;;;;;;;3.90;3.70;;;17.40;46.20;;;;;;10503282;28;20232;-69
2023/05/12 10:05:06;;;;;;;4.60;4.20;;;17.40;46.50;;;;;;10490854;28;20232;-69
2023/05/12 10:10:13;;;;;;;4.40;4.10;;;17.40;46.00;;;;;;10493505;28;20928;-70
2023/05/12 10:15:17;;;;;;;4.03;3.77;;;17.50;45.70;;;;;;10496778;28;20964;-69
2023/05/12 10:20:24;;;;;;;4.23;3.93;;;17.50;45.90;;;;;;10495712;28;20263;-69
2023/05/12 10:25:28;;;;;;;4.80;4.40;;;17.50;45.40;;;;;;10499135;28;20232;-69
2023/05/12 10:30:31;;;;;;;4.53;4.23;;;17.50;45.50;;;;;;10495622;28;20239;-69
2023/05/12 10:35:37;;;;;;;4.10;3.80;;;17.50;45.40;;;;;;10491119;28;20231;-69
2023/05/12 10:40:52;;;;;;;4.20;3.90;;;17.40;45.00;;;;;;10494434;28;20842;-69
2023/05/12 10:46:16;;;;;;;4.50;4.20;;;17.40;44.90;;;;;;10494895;28;20226;-69
2023/05/12 10:51:22;;;;;;;4.03;3.73;;;17.30;45.40;;;;;;10490803;28;20230;-69
2023/05/12 10:56:28;;;;;;;4.20;3.90;;;17.30;45.80;;;;;;10493979;28;20235;-69
2023/05/12 11:01:31;;;;;;;4.67;4.37;;;17.20;45.90;;;;;;10489344;28;20242;-69
2023/05/12 11:06:37;;;;;;;4.67;4.37;;;17.20;45.60;;;;;;10494760;28;20238;-69
2023/05/12 11:11:41;;;;;;;4.70;4.40;;;17.10;45.20;;;;;;10488434;28;20215;-69
2023/05/12 11:16:45;;;;;;;5.37;4.97;;;17.00;45.60;;;;;;10495937;28;20277;-69
2023/05/12 11:21:50;;;;;;;5.70;5.20;;;17.00;46.10;;;;;;10492580;28;20251;-68
2023/05/12 11:26:55;;;;;;;5.20;4.80;;;16.90;46.00;;;;;;10491355;28;20215;-68
2023/05/12 11:31:59;;;;;;;5.80;5.30;;;16.90;46.00;;;;;;10486333;28;21085;-68
2023/05/12 11:37:05;;;;;;;4.87;4.57;;;16.90;46.00;;;;;;10488782;28;20224;-68
2023/05/12 11:42:09;;;;;;;5.00;4.60;;;16.90;46.00;;;;;;10466770;28;20263;-69
2023/05/12 11:47:17;;;;;;;4.30;4.00;;;16.90;46.00;;;;;;10462203;28;20235;-69
2023/05/12 11:52:23;;;;;;;3.90;3.60;;;17.00;46.10;;;;;;10468653;28;20298;-69
2023/05/12 11:57:27;;;;;;;3.30;3.10;;;17.00;46.10;;;;;;10485940;28;20247;-69
2023/05/12 12:02:31;;;;;;;3.37;3.17;;;17.10;46.20;;;;;;10486040;28;20227;-69
2023/05/12 12:07:37;;;;;;;3.40;3.20;;;17.10;46.20;;;;;;10490765;28;20227;-68
2023/05/12 12:12:40;;;;;;;3.10;2.90;;;17.20;46.10;;;;;;10489239;28;20585;-68
2023/05/12 12:17:43;;;;;;;2.40;2.30;;;17.20;46.00;;;;;;10486664;28;20236;-68
2023/05/12 12:22:48;;;;;;;2.77;2.57;;;17.20;45.50;;;;;;10491181;28;20227;-68
2023/05/12 12:27:51;;;;;;;2.73;2.63;;;17.20;45.10;;;;;;10493531;28;20220;-69
2023/05/12 12:32:55;;;;;;;2.60;2.50;;;17.10;45.20;;;;;;10499129;28;21011;-71
2023/05/12 12:37:59;;;;;;;2.50;2.40;;;17.10;45.50;;;;;;10501167;28;20707;-69
2023/05/12 12:43:03;;;;;;;2.57;2.47;;;17.10;45.30;;;;;;10491012;28;20234;-70
2023/05/12 12:48:07;;;;;;;2.70;2.50;;;17.10;45.50;;;;;;10475422;28;20246;-69
2023/05/12 12:53:12;;;;;;;2.83;2.60;;;17.10;45.40;;;;;;10454099;28;20224;-69
2023/05/12 12:58:15;;;;;;;2.60;2.40;;;17.10;45.10;;;;;;10465487;28;20355;-69
2023/05/12 13:03:19;;;;;;;2.80;2.40;;;17.10;45.20;;;;;;10498296;28;20307;-69
2023/05/12 13:08:24;;;;;;;2.23;2.00;;;17.20;46.30;;;;;;10499099;28;20235;-68
2023/05/12 13:13:27;;;;;;;2.60;2.40;;;17.20;45.40;;;;;;10499871;28;20235;-68
2023/05/12 13:18:30;;;;;;;2.50;2.30;;;17.20;45.50;;;;;;10495805;28;20744;-68
2023/05/12 13:23:35;;;;;;;2.30;2.20;;;17.20;45.70;;;;;;10497886;28;20230;-70
2023/05/12 13:28:38;;;;;;;2.40;2.30;;;17.30;45.80;;;;;;10499219;28;20228;-68
2023/05/12 13:33:41;;;;;;;2.80;2.60;;;17.40;45.50;;;;;;10498380;28;20216;-69
2023/05/12 13:38:45;;;;;;;3.00;2.80;;;17.40;45.20;;;;;;10498937;28;20589;-68
2023/05/12 13:43:48;;;;;;;3.00;2.80;;;17.40;44.70;;;;;;10496382;28;20236;-68
2023/05/12 13:48:51;;;;;;;2.97;2.70;;;17.40;44.90;;;;;;10498068;28;20238;-68
2023/05/12 13:53:56;;;;;;;2.50;2.40;;;17.40;44.60;;;;;;10466197;28;20291;-71
2023/05/12 13:58:59;;;;;;;2.63;2.43;;;17.40;44.30;;;;;;10455062;28;21076;-68
2023/05/12 14:04:02;;;;;;;2.90;2.70;;;17.40;44.70;;;;;;10498041;28;20215;-69
2023/05/12 14:09:07;;;;;;;2.97;2.73;;;17.30;44.60;;;;;;10496614;28;20231;-68
2023/05/12 14:14:10;;;;;;;2.87;2.67;;;17.30;44.60;;;;;;10465259;28;20315;-68
2023/05/12 14:19:14;;;;;;;3.23;3.03;;;17.20;44.70;;;;;;10453885;28;20235;-68
2023/05/12 14:24:18;;;;;;;3.47;3.27;;;17.10;44.30;;;;;;10456460;28;20620;-68
2023/05/12 14:29:22;;;;;;;3.17;2.97;;;17.10;44.70;;;;;;10453937;28;21280;-68
2023/05/12 14:34:29;;;;;;;3.10;2.90;;;17.00;44.90;;;;;;10454036;28;20693;-70
2023/05/12 14:39:36;;;;;;;2.60;2.40;;;17.00;45.20;;;;;;10457068;28;20822;-70
2023/05/12 14:44:39;;;;;;;2.80;2.70;;;17.10;45.30;;;;;;10453973;28;20232;-68
2023/05/12 14:49:43;;;;;;;2.10;2.00;;;17.20;45.60;;;;;;10454248;28;20243;-69
2023/05/12 14:54:49;;;;;;;2.30;2.20;;;17.40;45.00;;;;;;10449250;28;20225;-68
2023/05/12 14:59:57;;;;;;;1.63;1.53;;;17.40;44.40;;;;;;10452534;28;20228;-70
2023/05/12 15:05:00;;;;;;;2.00;1.90;;;17.40;44.50;;;;;;10478015;28;20232;-68
2023/05/12 15:10:05;;;;;;;1.80;1.50;;;17.40;44.30;;;;;;10489914;28;20263;-68
2023/05/12 15:15:10;;;;;;;2.37;1.60;;;17.30;44.00;;;;;;10489365;28;20232;-72
2023/05/12 15:20:14;;;;;;;2.33;1.50;;;17.30;44.50;;;;;;10492112;28;20232;-71
2023/05/12 15:25:18;;;;;;;3.07;1.57;;;17.20;44.70;;;;;;10457814;28;20228;-71
2023/05/12 15:30:22;;;;;;;5.53;2.00;;;17.20;44.70;;;;;;10454836;28;20286;-69
2023/05/12 15:35:26;;;;;;;1.57;1.47;;;17.20;44.70;;;;;;10458892;28;20655;-68
2023/05/12 15:40:30;;;;;;;1.53;1.43;;;17.20;44.50;;;;;;10454025;28;20240;-69
2023/05/12 15:45:36;;;;;;;1.40;1.30;;;17.20;44.30;;;;;;10452434;28;20794;-68
2023/05/12 15:50:39;;;;;;;1.17;1.17;;;17.20;44.20;;;;;;10450054;28;20246;-68
2023/05/12 15:55:43;;;;;;;1.50;1.40;;;17.20;44.00;;;;;;10448928;28;20915;-69
2023/05/12 16:00:46;;;;;;;1.80;1.50;;;17.10;43.50;;;;;;10447699;28;20239;-69
2023/05/12 16:05:50;;;;;;;1.20;1.20;;;17.00;43.80;;;;;;10453941;28;20228;-69
2023/05/12 16:10:54;;;;;;;1.37;1.27;;;16.90;43.80;;;;;;10449282;28;20234;-69
2023/05/12 16:15:57;;;;;;;1.57;1.33;;;16.90;43.60;;;;;;10446359;28;20277;-69
2023/05/12 16:21:01;;;;;;;1.43;1.33;;;16.80;43.80;;;;;;10450773;28;20241;-69
2023/05/12 16:26:06;;;;;;;2.53;1.50;;;16.80;43.80;;;;;;10484160;28;20224;-70
2023/05/12 16:31:09;;;;;;;1.50;1.40;;;16.70;43.40;;;;;;10494659;28;20275;-69
2023/05/12 16:36:13;;;;;;;2.50;1.70;;;16.60;43.50;;;;;;10489787;28;20755;-69
2023/05/12 16:41:19;;;;;;;1.70;1.60;;;16.60;43.60;;;;;;10447928;28;20252;-69
2023/05/12 16:46:23;;;;;;;1.60;1.50;;;16.50;43.40;;;;;;10476351;28;21227;-69
2023/05/12 16:51:29;;;;;;;2.07;1.87;;;16.50;43.80;;;;;;10489460;28;20237;-69
2023/05/12 16:56:33;;;;;;;2.00;1.77;;;16.50;43.60;;;;;;10489145;28;20627;-69
2023/05/12 17:01:38;;;;;;;2.40;2.20;;;16.50;43.60;;;;;;10489206;28;20271;-69
2023/05/12 17:06:42;;;;;;;2.63;2.40;;;16.50;43.70;;;;;;10486768;28;20220;-70
2023/05/12 17:11:46;;;;;;;2.30;2.10;;;16.40;43.60;;;;;;10486690;28;20725;-69
2023/05/12 17:16:50;;;;;;;2.50;2.10;;;16.40;43.20;;;;;;10464891;28;20221;-70
2023/05/12 17:21:53;;;;;;;1.70;1.60;;;16.40;43.40;;;;;;10480096;28;20813;-71
2023/05/12 17:26:58;;;;;;;1.93;1.50;;;16.40;43.30;;;;;;10495272;28;20856;-70
2023/05/12 17:32:01;;;;;;;2.20;2.00;;;16.30;43.10;;;;;;10497403;28;20858;-69
2023/05/12 17:37:05;;;;;;;1.70;1.60;;;16.30;43.30;;;;;;10494447;28;20224;-69
2023/05/12 17:42:09;;;;;;;1.73;1.63;;;16.30;43.40;;;;;;10491432;28;20767;-70
2023/05/12 17:47:13;;;;;;;2.33;2.23;;;16.30;43.30;;;;;;10490255;28;20232;-69
2023/05/12 17:52:16;;;;;;;2.17;2.07;;;16.20;43.40;;;;;;10494775;28;20227;-69
2023/05/12 17:57:20;;;;;;;2.17;2.07;;;16.20;43.70;;;;;;10497498;28;20231;-69
2023/05/12 18:02:23;;;;;;;2.17;2.00;;;16.20;43.60;;;;;;10483510;28;20229;-69
2023/05/12 18:07:27;;;;;;;3.23;2.93;;;16.30;43.80;;;;;;10448818;28;20236;-69
2023/05/12 18:12:31;;;;;;;2.30;2.07;;;16.30;43.70;;;;;;10454836;28;20891;-69
2023/05/12 18:17:35;;;;;;;1.80;1.70;;;16.30;43.60;;;;;;10464589;28;20736;-69
2023/05/12 18:22:38;;;;;;;2.57;2.37;;;16.30;43.70;;;;;;10454724;28;20837;-69
2023/05/12 18:27:43;;;;;;;2.23;2.13;;;16.40;44.50;;;;;;10465087;28;20236;-69
2023/05/12 18:32:46;;;;;;;2.20;2.10;;;16.40;43.40;;;;;;10496359;28;20230;-69
2023/05/12 18:37:50;;;;;;;2.07;1.80;;;16.40;43.30;;;;;;10475877;28;20236;-69
2023/05/12 18:42:54;;;;;;;1.80;1.70;;;16.40;43.30;;;;;;10493335;28;20223;-69
2023/05/12 18:47:57;;;;;;;1.90;1.80;;;16.40;43.20;;;;;;10492343;28;20239;-70
2023/05/12 18:53:01;;;;;;;2.50;2.27;;;16.40;44.00;;;;;;10496275;28;20228;-69
2023/05/12 18:58:05;;;;;;;2.03;1.93;;;16.40;43.20;;;;;;10462851;28;20229;-69
2023/05/12 19:03:09;;;;;;;2.17;2.07;;;16.30;43.00;;;;;;10456299;28;20239;-69
2023/05/12 19:08:12;;;;;;;2.07;1.97;;;16.30;43.30;;;;;;10454011;28;20282;-69
2023/05/12 19:13:17;;;;;;;2.03;1.93;;;16.30;43.20;;;;;;10454280;28;20606;-70
2023/05/12 19:18:20;;;;;;;1.80;1.70;;;16.30;43.10;;;;;;10454819;28;20231;-69
2023/05/12 19:23:24;;;;;;;1.70;1.60;;;16.30;43.00;;;;;;10455685;28;20235;-69
2023/05/12 19:28:28;;;;;;;1.90;1.80;;;16.20;43.00;;;;;;10452534;28;20228;-69
2023/05/12 19:33:33;;;;;;;5.27;4.80;;;16.30;42.90;;;;;;10456715;28;20228;-69
2023/05/12 19:38:36;;;;;;;3.53;2.83;;;16.30;42.90;;;;;;10449287;28;20236;-69
2023/05/12 19:43:41;;;;;;;2.37;2.20;;;16.30;42.90;;;;;;10454006;28;20240;-69
2023/05/12 19:48:44;;;;;;;2.10;1.90;;;16.30;42.60;;;;;;10452998;28;20228;-70
2023/05/12 19:53:48;;;;;;;2.43;2.33;;;16.30;42.80;;;;;;10453918;28;20770;-69
2023/05/12 19:58:52;;;;;;;2.00;1.90;;;16.30;42.60;;;;;;10449231;28;20235;-69
2023/05/12 20:03:55;;;;;;;14.40;12.93;;;16.30;42.20;;;;;;10450840;28;20323;-69
2023/05/12 20:08:59;;;;;;;3.17;2.90;;;16.20;42.30;;;;;;10449946;28;20603;-69
2023/05/12 20:14:03;;;;;;;2.30;2.10;;;16.20;42.30;;;;;;10442453;28;20224;-70
2023/05/12 20:19:06;;;;;;;2.17;1.77;;;16.20;42.20;;;;;;10447047;28;20225;-69
2023/05/12 20:24:10;;;;;;;2.40;1.60;;;16.10;42.40;;;;;;10439070;28;21029;-69
2023/05/12 20:29:19;;;;;;;1.70;1.60;;;16.10;42.40;;;;;;10447223;28;20604;-69
2023/05/12 20:34:22;;;;;;;2.00;1.90;;;16.10;42.20;;;;;;10442029;28;20243;-69
2023/05/12 20:39:27;;;;;;;1.33;1.30;;;16.10;42.30;;;;;;10440624;28;20235;-69
2023/05/12 20:44:31;;;;;;;1.30;1.30;;;16.00;42.30;;;;;;10464368;28;20232;-69
2023/05/12 20:49:34;;;;;;;1.50;1.40;;;16.00;42.20;;;;;;10485261;28;20224;-69
2023/05/12 20:54:37;;;;;;;1.10;1.10;;;16.00;42.10;;;;;;10493884;28;20238;-69
2023/05/12 20:59:42;;;;;;;1.20;1.20;;;16.00;42.30;;;;;;10494449;28;20788;-69
2023/05/12 21:04:45;;;;;;;1.10;1.10;;;16.00;42.10;;;;;;10493839;28;20220;-69
2023/05/12 21:09:48;;;;;;;1.33;1.30;;;16.00;43.00;;;;;;10495708;28;20231;-69
2023/05/12 21:14:53;;;;;;;1.27;1.27;;;16.00;42.30;;;;;;10472759;28;20235;-69
2023/05/12 21:19:56;;;;;;;1.40;1.30;;;16.00;42.10;;;;;;10493910;28;20227;-69
2023/05/12 21:24:59;;;;;;;1.20;1.20;;;16.00;42.30;;;;;;10496469;28;20224;-69
2023/05/12 21:30:05;;;;;;;1.50;1.40;;;16.10;42.50;;;;;;10489719;28;20869;-70
2023/05/12 21:35:08;;;;;;;1.37;1.17;;;16.10;42.30;;;;;;10449195;28;20225;-70
2023/05/12 21:40:12;;;;;;;1.10;1.10;;;16.10;42.40;;;;;;10451094;28;20266;-69
2023/05/12 21:45:19;;;;;;;1.30;1.30;;;16.10;42.30;;;;;;10449844;28;20225;-69
2023/05/12 21:50:22;;;;;;;1.27;1.27;;;16.10;42.00;;;;;;10453313;28;20240;-68
2023/05/12 21:55:25;;;;;;;1.50;1.40;;;16.10;42.20;;;;;;10453895;28;20232;-69
2023/05/12 22:00:30;;;;;;;1.40;1.30;;;16.00;42.00;;;;;;10466486;28;20716;-69
2023/05/12 22:05:33;;;;;;;2.70;1.30;;;16.00;42.00;;;;;;10498555;28;20239;-69
2023/05/12 22:10:36;;;;;;;1.47;1.30;;;15.90;42.10;;;;;;10482273;28;20232;-69
2023/05/12 22:15:41;;;;;;;1.10;1.10;;;15.90;42.00;;;;;;10458158;28;20625;-70
2023/05/12 22:20:44;;;;;;;1.30;1.20;;;15.90;42.00;;;;;;10494609;28;20760;-69
2023/05/12 22:25:47;;;;;;;1.10;1.10;;;15.80;42.00;;;;;;10494913;28;20320;-69
2023/05/12 22:30:52;;;;;;;1.27;1.27;;;15.80;42.00;;;;;;10461541;28;22030;-70
2023/05/12 22:35:57;;;;;;;1.50;1.40;;;15.70;41.90;;;;;;10457859;28;20298;-69
2023/05/12 22:41:00;;;;;;;1.30;1.20;;;15.70;42.00;;;;;;10456059;28;20233;-69
2023/05/12 22:46:08;;;;;;;1.77;1.13;;;15.70;42.10;;;;;;10461273;28;20228;-69
2023/05/12 22:51:11;;;;;;;1.23;1.23;;;15.70;42.20;;;;;;10492067;28;20281;-69
2023/05/12 22:56:14;;;;;;;1.60;1.50;;;15.70;42.30;;;;;;10496697;28;20314;-70
2023/05/12 23:01:19;;;;;;;1.50;1.40;;;15.60;42.30;;;;;;10470673;28;20220;-69
2023/05/12 23:06:22;;;;;;;1.47;1.37;;;15.60;42.30;;;;;;10447713;28;20230;-69
2023/05/12 23:11:25;;;;;;;1.43;1.33;;;15.60;42.40;;;;;;10483564;28;20235;-69
2023/05/12 23:16:30;;;;;;;1.13;1.00;;;15.60;42.40;;;;;;10494249;28;20235;-69
2023/05/12 23:21:33;;;;;;;1.50;1.17;;;15.50;42.30;;;;;;10472948;28;20242;-69
2023/05/12 23:26:36;;;;;;;1.70;1.60;;;15.50;42.40;;;;;;10449349;28;20277;-69
2023/05/12 23:31:40;;;;;;;1.27;1.27;;;15.50;42.50;;;;;;10451230;28;20236;-69
2023/05/12 23:36:44;;;;;;;1.20;1.20;;;15.50;42.50;;;;;;10479249;28;20231;-69
2023/05/12 23:41:48;;;;;;;1.30;1.30;;;15.50;42.50;;;;;;10487309;28;20261;-69
2023/05/12 23:46:52;;;;;;;1.10;1.00;;;15.40;42.50;;;;;;10494604;28;20232;-69
2023/05/12 23:51:55;;;;;;;1.10;1.10;;;15.40;42.60;;;;;;10496456;28;20224;-68
2023/05/12 23:56:59;;;;;;;1.73;1.37;;;15.40;42.50;;;;;;10494931;28;20232;-69
